Skive, Denmark
Current Conditions -  °F | °C
As of 3:20 PM on Friday 24 Oct 2014 (Local Time) from EKKA Reporting Station
Broken Clouds Broken Clouds  
Wind Chill: 54°   Ceiling: 600
Heat Index: 54°   Visibility: 4mi
Dew Point: 54°   Wind: 12mph
Humidity: 100%   Direction: 180°S
Pressure: 29.94"   Gusts: NA
Location:  56.57°N, 9.02°E
Report Text: EKKA 241320Z 18010KT 150V220 7000 BKN006 12/12 Q1014
Loading
Personal Weather Stations






























Interactive Weather Map
Tropical Storm Tracking
New forecast layout! Learn more

10-Day Weather Forecast

Advertisements
Track Severe Weather on mobile